Time;durP1;ratioP1;P1;durP2;ratioP2;P2;SDS_P1;SDS_P2;PMS_P1;PMS_P2;Temp;Humidity;BMP_temperature;BMP_pressure;BME280_temperature;BME280_humidity;BME280_pressure;Samples;Min_cycle;Max_cycle;Signal;HPM_P1;HPM_P2
2022/01/08 00:01:12;;;;;;;;;;;128.00;2252.80;;;;;;4937575;28;20425;-76
2022/01/08 00:03:39;;;;;;;;;;;128.00;2252.80;;;;;;4953100;29;19910;-76
2022/01/08 00:06:04;;;;;;;;;;;128.00;2252.80;;;;;;4952034;29;19906;-76
2022/01/08 00:08:30;;;;;;;;;;;103.30;2227.20;;;;;;4952655;29;20001;-75
2022/01/08 00:10:56;;;;;;;;;;;103.30;2227.20;;;;;;4953112;29;20522;-75
2022/01/08 00:13:21;;;;;;;;;;;103.20;2227.20;;;;;;4952801;29;20027;-75
2022/01/08 00:15:47;;;;;;;;;;;103.20;2227.20;;;;;;4952644;29;19906;-75
2022/01/08 00:18:13;;;;;;;;;;;103.20;2227.20;;;;;;4952683;29;19914;-75
2022/01/08 00:20:38;;;;;;;;;;;103.10;2227.20;;;;;;4954969;28;19907;-75
2022/01/08 00:23:04;;;;;;;;;;;103.20;2227.20;;;;;;4956269;29;20382;-75
2022/01/08 00:25:30;;;;;;;;;;;103.20;2227.20;;;;;;4956203;29;19913;-74
2022/01/08 00:27:55;;;;;;;;;;;103.20;2227.20;;;;;;4956113;29;20349;-75
2022/01/08 00:30:21;;;;;;;;;;;103.20;2227.20;;;;;;4955898;29;19914;-75
2022/01/08 00:32:47;;;;;;;;;;;103.20;2227.20;;;;;;4956146;29;19934;-75
2022/01/08 00:35:13;;;;;;;;;;;103.20;2227.20;;;;;;4967313;28;20247;-75
2022/01/08 00:37:39;;;;;;;;;;;103.20;2227.20;;;;;;4959702;28;19906;-73
2022/01/08 00:40:05;;;;;;;;;;;103.30;2227.20;;;;;;4977108;28;20367;-75
2022/01/08 00:42:31;;;;;;;;;;;103.30;2227.20;;;;;;4977382;28;19961;-74
2022/01/08 00:44:57;;;;;;;;;;;103.30;2227.20;;;;;;4977038;28;20330;-75
2022/01/08 00:47:22;;;;;;;;;;;103.30;2227.20;;;;;;4977302;28;19956;-75
2022/01/08 00:49:48;;;;;;;;;;;103.30;2227.20;;;;;;4977187;28;19910;-75
2022/01/08 00:52:13;;;;;;;;;;;103.20;2227.20;;;;;;4977031;28;19953;-75
2022/01/08 00:54:39;;;;;;;;;;;103.30;2227.20;;;;;;4959253;28;20001;-76
2022/01/08 00:57:05;;;;;;;;;;;103.30;2227.20;;;;;;4977151;28;19913;-75
2022/01/08 00:59:31;;;;;;;;;;;103.20;2227.20;;;;;;4977237;28;19909;-76
2022/01/08 01:01:56;;;;;;;;;;;103.30;2227.20;;;;;;4976779;28;19913;-75
2022/01/08 01:04:22;;;;;;;;;;;103.30;2227.20;;;;;;4977012;28;19906;-74
2022/01/08 01:06:47;;;;;;;;;;;103.30;2227.20;;;;;;4976983;28;20020;-76
2022/01/08 01:09:13;;;;;;;;;;;103.30;2227.20;;;;;;4976734;28;20328;-75
2022/01/08 01:11:39;;;;;;;;;;;103.20;2227.20;;;;;;4976817;28;19913;-74
2022/01/08 01:14:04;;;;;;;;;;;103.20;2227.20;;;;;;4976689;28;20313;-74
2022/01/08 01:16:30;;;;;;;;;;;103.20;2227.20;;;;;;4957464;28;19998;-75
2022/01/08 01:18:57;;;;;;;;;;;103.10;2227.20;;;;;;4961905;28;20098;-75
2022/01/08 01:21:23;;;;;;;;;;;103.20;2227.20;;;;;;4965330;28;19923;-75
2022/01/08 01:23:50;;;;;;;;;;;103.30;2227.20;;;;;;4967964;28;19917;-75
2022/01/08 01:26:20;;;;;;;;;;;103.30;2227.20;;;;;;4965781;28;19913;-75
2022/01/08 01:28:57;;;;;;;;;;;103.30;2227.20;;;;;;4965751;28;19907;-75
2022/01/08 01:47:13;;;;;;;;;;;103.20;2227.20;;;;;;4966049;28;19913;-74
2022/01/08 01:49:40;;;;;;;;;;;103.30;2227.20;;;;;;4966950;28;19922;-75
2022/01/08 01:52:07;;;;;;;;;;;103.30;2227.20;;;;;;4965128;28;19911;-75
2022/01/08 01:54:33;;;;;;;;;;;128.00;2252.80;;;;;;4965719;28;19913;-76
2022/01/08 01:56:59;;;;;;;;;;;103.30;2227.20;;;;;;4966961;28;19907;-75
2022/01/08 01:59:26;;;;;;;;;;;128.00;2252.80;;;;;;4967416;28;19907;-75
2022/01/08 02:01:51;;;;;;;;;;;128.00;2252.80;;;;;;4964083;28;19918;-74
2022/01/08 02:04:17;;;;;;;;;;;103.30;2227.20;;;;;;4965792;28;19906;-75
2022/01/08 02:06:43;;;;;;;;;;;103.30;2227.20;;;;;;4968156;28;19910;-74
2022/01/08 02:09:08;;;;;;;;;;;103.30;2227.20;;;;;;4964809;28;19911;-75
2022/01/08 02:11:34;;;;;;;;;;;103.30;2227.20;;;;;;4966466;28;19906;-76
2022/01/08 02:14:03;;;;;;;;;;;103.20;2227.20;;;;;;4965629;28;19993;-75
2022/01/08 02:16:29;;;;;;;;;;;103.30;2227.20;;;;;;4964601;28;19942;-73
2022/01/08 02:18:55;;;;;;;;;;;103.30;2227.20;;;;;;4964217;28;19964;-74
2022/01/08 02:21:20;;;;;;;;;;;103.30;2227.20;;;;;;4965143;28;20325;-75
2022/01/08 02:23:48;;;;;;;;;;;103.20;2227.20;;;;;;4964927;28;19953;-76
2022/01/08 02:26:13;;;;;;;;;;;103.20;2227.20;;;;;;4964601;28;19992;-75
2022/01/08 02:28:39;;;;;;;;;;;103.30;2227.20;;;;;;4962668;28;19992;-75
2022/01/08 02:31:05;;;;;;;;;;;128.00;2252.80;;;;;;4964406;28;19961;-74
2022/01/08 02:33:31;;;;;;;;;;;128.00;2252.80;;;;;;4956778;28;19906;-73
2022/01/08 02:35:57;;;;;;;;;;;128.10;2252.80;;;;;;4965074;28;19907;-75
2022/01/08 02:38:23;;;;;;;;;;;103.10;2227.20;;;;;;4964715;28;20270;-74
2022/01/08 02:40:58;;;;;;;;;;;103.00;2227.20;;;;;;4965852;28;19933;-75
2022/01/08 02:43:24;;;;;;;;;;;102.80;2227.20;;;;;;4965498;28;19961;-74
2022/01/08 02:45:50;;;;;;;;;;;102.80;2227.20;;;;;;4963863;28;19910;-75
2022/01/08 02:48:15;;;;;;;;;;;102.80;2227.20;;;;;;4948518;28;19906;-75
2022/01/08 02:50:41;;;;;;;;;;;102.80;2227.20;;;;;;4963435;28;19913;-74
2022/01/08 02:53:07;;;;;;;;;;;102.80;2227.20;;;;;;4965867;28;19910;-75
2022/01/08 02:55:32;;;;;;;;;;;102.90;2227.20;;;;;;4963723;28;20363;-74
2022/01/08 02:57:58;;;;;;;;;;;102.80;2227.20;;;;;;4965354;28;19906;-75
2022/01/08 03:00:24;;;;;;;;;;;102.90;2227.20;;;;;;4965248;28;19953;-74
2022/01/08 03:02:51;;;;;;;;;;;102.90;2227.20;;;;;;4963807;28;19915;-75
2022/01/08 03:05:17;;;;;;;;;;;102.90;2227.20;;;;;;4965318;28;19969;-74
2022/01/08 03:07:43;;;;;;;;;;;103.00;2227.20;;;;;;4965007;28;19907;-75
2022/01/08 03:10:10;;;;;;;;;;;102.80;2227.20;;;;;;4963551;28;19914;-75
2022/01/08 03:12:38;;;;;;;;;;;102.80;2227.20;;;;;;4965527;28;20382;-75
2022/01/08 03:15:05;;;;;;;;;;;102.70;2227.20;;;;;;4964640;28;19914;-73
2022/01/08 03:17:30;;;;;;;;;;;102.70;2227.20;;;;;;4963714;28;19981;-75
2022/01/08 03:20:02;;;;;;;;;;;102.50;2227.20;;;;;;4965319;28;20374;-75
2022/01/08 03:22:29;;;;;;;;;;;102.40;2227.20;;;;;;4965360;28;19919;-73
2022/01/08 03:24:54;;;;;;;;;;;102.50;2227.20;;;;;;4965568;28;19912;-76
2022/01/08 03:27:20;;;;;;;;;;;102.40;2227.20;;;;;;4964241;28;19993;-73
2022/01/08 03:29:46;;;;;;;;;;;77.70;2227.20;;;;;;4964133;28;19906;-75
2022/01/08 03:32:11;;;;;;;;;;;102.50;2227.20;;;;;;4965488;28;19910;-74
2022/01/08 03:34:37;;;;;;;;;;;102.50;2227.20;;;;;;4963800;28;19960;-75
2022/01/08 03:37:02;;;;;;;;;;;102.50;2227.20;;;;;;4964640;28;19913;-75
2022/01/08 03:39:28;;;;;;;;;;;102.60;2227.20;;;;;;4964862;28;20295;-74
2022/01/08 03:41:53;;;;;;;;;;;102.80;2227.20;;;;;;4963215;28;19996;-75
2022/01/08 03:44:20;;;;;;;;;;;102.90;2227.20;;;;;;4965100;28;19913;-75
2022/01/08 03:46:45;;;;;;;;;;;103.00;2227.20;;;;;;4946031;28;19918;-76
2022/01/08 03:49:14;;;;;;;;;;;102.90;2227.20;;;;;;4963100;28;19914;-74
2022/01/08 03:51:40;;;;;;;;;;;102.70;2227.20;;;;;;4965007;28;20366;-76
2022/01/08 03:54:06;;;;;;;;;;;102.60;2227.20;;;;;;4964876;28;19906;-75
2022/01/08 03:56:32;;;;;;;;;;;102.60;2227.20;;;;;;4966961;28;20444;-75
2022/01/08 03:58:57;;;;;;;;;;;102.60;2227.20;;;;;;4969675;28;19913;-73
2022/01/08 04:01:23;;;;;;;;;;;102.50;2227.20;;;;;;4967968;28;19918;-75
2022/01/08 04:03:48;;;;;;;;;;;102.40;2227.20;;;;;;4968495;28;19976;-74
2022/01/08 04:06:14;;;;;;;;;;;102.50;2227.20;;;;;;4966861;28;20270;-75
2022/01/08 04:08:40;;;;;;;;;;;77.70;2227.20;;;;;;4968553;28;19913;-74
2022/01/08 04:11:05;;;;;;;;;;;77.60;2227.20;;;;;;4967739;28;19906;-75
2022/01/08 04:13:34;;;;;;;;;;;77.60;2227.20;;;;;;4966989;28;19910;-75
2022/01/08 04:16:09;;;;;;;;;;;77.60;2227.20;;;;;;4966474;28;20287;-75
2022/01/08 04:18:35;;;;;;;;;;;77.60;2227.20;;;;;;4966602;28;19915;-75
2022/01/08 04:23:35;;;;;;;;;;;77.50;2227.20;;;;;;4968607;28;20386;-74
2022/01/08 04:26:01;;;;;;;;;;;77.50;2227.20;;;;;;4967774;28;19957;-73
2022/01/08 04:28:26;;;;;;;;;;;77.50;2227.20;;;;;;4967340;28;19948;-75
2022/01/08 04:30:52;;;;;;;;;;;77.50;2227.20;;;;;;4968524;28;20281;-74
2022/01/08 04:33:18;;;;;;;;;;;77.60;2227.20;;;;;;4966602;28;19941;-75
2022/01/08 04:35:43;;;;;;;;;;;77.50;2227.20;;;;;;4950466;28;19906;-74
2022/01/08 04:38:09;;;;;;;;;;;77.60;2227.20;;;;;;4967931;28;19914;-75
2022/01/08 04:40:35;;;;;;;;;;;77.60;2227.20;;;;;;4965927;28;20419;-75
2022/01/08 04:43:01;;;;;;;;;;;77.60;2227.20;;;;;;4968177;28;19906;-76
2022/01/08 04:45:30;;;;;;;;;;;77.50;2227.20;;;;;;4967396;28;20352;-75
2022/01/08 04:47:57;;;;;;;;;;;77.40;2227.20;;;;;;4968322;28;19910;-75
2022/01/08 04:50:23;;;;;;;;;;;77.50;2227.20;;;;;;4949373;28;19911;-74
2022/01/08 04:52:48;;;;;;;;;;;77.50;2227.20;;;;;;4949695;28;19910;-74
2022/01/08 04:55:14;;;;;;;;;;;77.50;2227.20;;;;;;4968076;28;19941;-75
2022/01/08 04:57:40;;;;;;;;;;;77.40;2227.20;;;;;;4966358;28;19914;-75
2022/01/08 05:00:06;;;;;;;;;;;77.50;2227.20;;;;;;4967120;28;20278;-75
2022/01/08 05:02:31;;;;;;;;;;;77.30;2227.20;;;;;;4957164;28;19914;-75
2022/01/08 05:04:57;;;;;;;;;;;77.40;2227.20;;;;;;4966025;28;19906;-74
2022/01/08 05:07:22;;;;;;;;;;;77.30;2227.20;;;;;;4966506;28;20326;-75
2022/01/08 05:09:48;;;;;;;;;;;77.40;2227.20;;;;;;4967187;28;19961;-75
2022/01/08 05:12:14;;;;;;;;;;;77.40;2227.20;;;;;;4966049;28;20418;-74
2022/01/08 05:14:41;;;;;;;;;;;77.30;2227.20;;;;;;4965510;28;20384;-75
2022/01/08 05:17:06;;;;;;;;;;;77.40;2227.20;;;;;;4966659;28;19910;-75
2022/01/08 05:19:49;;;;;;;;;;;77.50;2227.20;;;;;;4966049;28;20469;-74
2022/01/08 05:22:24;;;;;;;;;;;77.40;2227.20;;;;;;4965744;28;19925;-75
2022/01/08 05:24:50;;;;;;;;;;;77.50;2227.20;;;;;;4949186;28;20346;-75
2022/01/08 05:27:17;;;;;;;;;;;77.40;2227.20;;;;;;4967566;28;19914;-75
2022/01/08 05:29:46;;;;;;;;;;;77.30;2227.20;;;;;;4967430;28;19917;-75
2022/01/08 05:32:16;;;;;;;;;;;77.30;2227.20;;;;;;4966912;28;19911;-75
2022/01/08 05:34:46;;;;;;;;;;;77.20;2227.20;;;;;;4965494;28;20009;-75
2022/01/08 05:37:11;;;;;;;;;;;77.30;2227.20;;;;;;4966008;28;19906;-74
2022/01/08 05:39:37;;;;;;;;;;;77.20;2227.20;;;;;;4967073;28;19932;-75
2022/01/08 05:42:03;;;;;;;;;;;77.20;2227.20;;;;;;4965169;28;19921;-75
2022/01/08 05:44:28;;;;;;;;;;;77.30;2227.20;;;;;;4948953;28;19968;-75
2022/01/08 05:46:54;;;;;;;;;;;77.30;2227.20;;;;;;4966615;28;19906;-74
2022/01/08 05:49:19;;;;;;;;;;;77.30;2227.20;;;;;;4964879;28;19906;-75
2022/01/08 05:51:45;;;;;;;;;;;77.40;2227.20;;;;;;4966853;28;19932;-74
2022/01/08 05:54:11;;;;;;;;;;;77.40;2227.20;;;;;;4955471;28;19906;-75
2022/01/08 05:56:36;;;;;;;;;;;77.40;2227.20;;;;;;4947787;28;19906;-75
2022/01/08 05:59:02;;;;;;;;;;;77.40;2227.20;;;;;;4966769;28;19910;-74
2022/01/08 06:01:28;;;;;;;;;;;77.40;2227.20;;;;;;4965521;28;19950;-74
2022/01/08 06:03:53;;;;;;;;;;;77.30;2227.20;;;;;;4965208;28;19961;-73
2022/01/08 06:06:19;;;;;;;;;;;77.40;2227.20;;;;;;4966708;28;19910;-75
2022/01/08 06:08:44;;;;;;;;;;;77.50;2227.20;;;;;;4965043;28;19914;-74
2022/01/08 06:11:10;;;;;;;;;;;77.50;2227.20;;;;;;4948099;28;19906;-75
2022/01/08 06:13:35;;;;;;;;;;;77.50;2227.20;;;;;;4966379;28;19946;-75
2022/01/08 06:16:01;;;;;;;;;;;77.50;2227.20;;;;;;4964168;28;20378;-75
2022/01/08 06:18:26;;;;;;;;;;;77.50;2227.20;;;;;;4966133;28;19906;-75
2022/01/08 06:20:52;;;;;;;;;;;77.60;2227.20;;;;;;4965630;28;19914;-74
2022/01/08 06:23:18;;;;;;;;;;;77.70;2227.20;;;;;;4964738;28;19910;-73
2022/01/08 06:25:43;;;;;;;;;;;77.70;2227.20;;;;;;4966425;28;19977;-74
2022/01/08 06:28:10;;;;;;;;;;;77.70;2227.20;;;;;;4966518;28;20374;-75
2022/01/08 06:30:36;;;;;;;;;;;77.70;2227.20;;;;;;4947641;28;19906;-75
2022/01/08 06:33:01;;;;;;;;;;;77.60;2227.20;;;;;;4966272;28;20028;-75
2022/01/08 06:35:27;;;;;;;;;;;77.60;2227.20;;;;;;4964674;28;19907;-75
2022/01/08 06:37:52;;;;;;;;;;;77.70;2227.20;;;;;;4965311;28;19906;-73
2022/01/08 06:40:18;;;;;;;;;;;77.60;2227.20;;;;;;4965865;28;19919;-75
2022/01/08 06:42:43;;;;;;;;;;;77.50;2227.20;;;;;;4963936;28;20264;-75
2022/01/08 06:45:09;;;;;;;;;;;77.60;2227.20;;;;;;4965489;28;19915;-74
2022/01/08 06:47:35;;;;;;;;;;;77.70;2227.20;;;;;;4965521;28;20414;-75
2022/01/08 06:50:00;;;;;;;;;;;102.40;2227.20;;;;;;4964121;28;19914;-75
2022/01/08 06:52:26;;;;;;;;;;;102.50;2227.20;;;;;;4966224;28;20274;-76
2022/01/08 06:54:52;;;;;;;;;;;102.60;2227.20;;;;;;4964772;28;20009;-74
2022/01/08 06:57:17;;;;;;;;;;;102.60;2227.20;;;;;;4964529;28;19906;-75
2022/01/08 06:59:43;;;;;;;;;;;102.70;2227.20;;;;;;4966005;28;19906;-76
2022/01/08 07:02:09;;;;;;;;;;;102.70;2227.20;;;;;;4964069;28;19942;-74
2022/01/08 07:04:34;;;;;;;;;;;102.80;2227.20;;;;;;4964765;28;19910;-74
2022/01/08 07:07:00;;;;;;;;;;;102.70;2227.20;;;;;;4965755;28;19916;-75
2022/01/08 07:09:25;;;;;;;;;;;102.80;2227.20;;;;;;4963993;28;19907;-75
2022/01/08 07:11:51;;;;;;;;;;;102.80;2227.20;;;;;;4965090;28;19906;-75
2022/01/08 07:14:16;;;;;;;;;;;102.60;2227.20;;;;;;4965123;28;19906;-75
2022/01/08 07:16:43;;;;;;;;;;;102.60;2227.20;;;;;;4965942;28;20421;-75
2022/01/08 07:19:09;;;;;;;;;;;102.80;2227.20;;;;;;4963997;28;19910;-77
2022/01/08 07:21:35;;;;;;;;;;;102.80;2227.20;;;;;;4964800;28;19918;-75
2022/01/08 07:24:00;;;;;;;;;;;102.80;2227.20;;;;;;4965720;28;19950;-79
2022/01/08 07:26:26;;;;;;;;;;;102.70;2227.20;;;;;;4963600;28;19906;-75
2022/01/08 07:28:51;;;;;;;;;;;102.60;2227.20;;;;;;4965122;28;19917;-76
2022/01/08 07:31:17;;;;;;;;;;;102.50;2227.20;;;;;;4968597;28;20290;-76
2022/01/08 07:33:42;;;;;;;;;;;102.50;2227.20;;;;;;4967597;28;19914;-75
2022/01/08 07:36:08;;;;;;;;;;;102.60;2227.20;;;;;;4969568;28;20314;-77
2022/01/08 07:38:34;;;;;;;;;;;102.50;2227.20;;;;;;4966829;28;19910;-76
2022/01/08 07:40:59;;;;;;;;;;;102.50;2227.20;;;;;;4967811;28;19921;-75
2022/01/08 07:43:25;;;;;;;;;;;102.40;2227.20;;;;;;4969312;28;19906;-75
2022/01/08 07:45:50;;;;;;;;;;;77.70;2227.20;;;;;;4967408;28;19929;-75
2022/01/08 07:48:16;;;;;;;;;;;77.70;2227.20;;;;;;4968115;28;19954;-75
2022/01/08 07:50:41;;;;;;;;;;;102.50;2227.20;;;;;;4968872;28;19914;-73
2022/01/08 07:53:07;;;;;;;;;;;102.40;2227.20;;;;;;4951952;28;19964;-74
2022/01/08 07:55:33;;;;;;;;;;;102.60;2227.20;;;;;;4970758;28;20004;-74
2022/01/08 07:57:58;;;;;;;;;;;102.70;2227.20;;;;;;4968460;28;19906;-74
2022/01/08 08:00:24;;;;;;;;;;;102.80;2227.20;;;;;;4967012;28;19914;-76
2022/01/08 08:02:50;;;;;;;;;;;102.90;2227.20;;;;;;4968964;28;20290;-78
2022/01/08 08:05:15;;;;;;;;;;;102.90;2227.20;;;;;;4966388;28;19910;-76
2022/01/08 08:07:41;;;;;;;;;;;103.00;2227.20;;;;;;4967509;28;19909;-75
2022/01/08 08:10:10;;;;;;;;;;;103.10;2227.20;;;;;;4968955;28;19945;-75
2022/01/08 08:12:35;;;;;;;;;;;103.10;2227.20;;;;;;4950655;28;20262;-77
2022/01/08 08:15:01;;;;;;;;;;;103.00;2227.20;;;;;;4967076;28;19907;-76
2022/01/08 08:17:27;;;;;;;;;;;103.00;2227.20;;;;;;4966838;28;20404;-76
2022/01/08 08:19:52;;;;;;;;;;;103.00;2227.20;;;;;;4969486;28;19910;-75
2022/01/08 08:22:18;;;;;;;;;;;103.10;2227.20;;;;;;4967595;28;20017;-75
2022/01/08 08:24:43;;;;;;;;;;;103.00;2227.20;;;;;;4968539;28;19961;-76
2022/01/08 08:27:09;;;;;;;;;;;103.00;2227.20;;;;;;4966723;28;19929;-75
2022/01/08 08:29:35;;;;;;;;;;;103.10;2227.20;;;;;;4966800;28;20377;-79
2022/01/08 08:32:01;;;;;;;;;;;103.10;2227.20;;;;;;4967484;28;20274;-75
2022/01/08 08:34:26;;;;;;;;;;;103.20;2227.20;;;;;;4968405;28;19913;-78
2022/01/08 08:36:52;;;;;;;;;;;103.20;2227.20;;;;;;4966771;28;19911;-75
2022/01/08 08:39:17;;;;;;;;;;;103.20;2227.20;;;;;;4967555;28;19926;-75
2022/01/08 08:41:43;;;;;;;;;;;103.20;2227.20;;;;;;4967822;28;19968;-76
2022/01/08 08:44:08;;;;;;;;;;;103.30;2227.20;;;;;;4966310;28;20286;-75
2022/01/08 08:46:34;;;;;;;;;;;103.20;2227.20;;;;;;4965986;28;19913;-74
2022/01/08 08:49:00;;;;;;;;;;;103.20;2227.20;;;;;;4967178;28;19913;-77
2022/01/08 08:51:25;;;;;;;;;;;103.10;2227.20;;;;;;4969457;28;20361;-77
2022/01/08 08:53:51;;;;;;;;;;;103.10;2227.20;;;;;;4964951;28;19910;-75
2022/01/08 08:56:16;;;;;;;;;;;103.20;2227.20;;;;;;4967646;28;19960;-75
2022/01/08 08:58:42;;;;;;;;;;;103.20;2227.20;;;;;;4967255;28;20363;-75
2022/01/08 09:01:08;;;;;;;;;;;103.30;2227.20;;;;;;4965896;28;19966;-75
2022/01/08 09:03:33;;;;;;;;;;;103.30;2227.20;;;;;;4967883;28;20297;-74
2022/01/08 09:05:59;;;;;;;;;;;103.20;2227.20;;;;;;4968146;28;19910;-76
2022/01/08 09:08:24;;;;;;;;;;;103.30;2227.20;;;;;;4966796;28;19919;-76
2022/01/08 09:10:50;;;;;;;;;;;103.20;2227.20;;;;;;4965480;28;20389;-73
2022/01/08 09:13:16;;;;;;;;;;;103.20;2227.20;;;;;;4966783;28;19969;-76
2022/01/08 09:15:42;;;;;;;;;;;103.10;2227.20;;;;;;4965647;28;19910;-75
2022/01/08 09:18:08;;;;;;;;;;;103.20;2227.20;;;;;;4965811;28;19912;-75
2022/01/08 09:20:34;;;;;;;;;;;103.20;2227.20;;;;;;4966445;28;19910;-74
2022/01/08 09:23:00;;;;;;;;;;;103.30;2227.20;;;;;;4949271;28;19924;-76
2022/01/08 09:25:26;;;;;;;;;;;103.20;2227.20;;;;;;4965519;28;19934;-75
2022/01/08 09:27:51;;;;;;;;;;;103.20;2227.20;;;;;;4966845;28;20361;-76
2022/01/08 09:30:17;;;;;;;;;;;103.20;2227.20;;;;;;4966811;28;19934;-75
2022/01/08 09:32:45;;;;;;;;;;;103.30;2227.20;;;;;;4965303;28;19915;-75
2022/01/08 09:35:12;;;;;;;;;;;103.30;2227.20;;;;;;4967637;28;19952;-75
2022/01/08 09:37:39;;;;;;;;;;;103.20;2227.20;;;;;;4965311;28;19980;-75
2022/01/08 09:40:09;;;;;;;;;;;103.30;2227.20;;;;;;4966709;28;19953;-75
2022/01/08 09:42:35;;;;;;;;;;;103.20;2227.20;;;;;;4967032;28;19921;-76
2022/01/08 09:45:00;;;;;;;;;;;103.20;2227.20;;;;;;4964045;28;19910;-76
2022/01/08 09:47:27;;;;;;;;;;;103.30;2227.20;;;;;;4967111;28;19906;-76
2022/01/08 09:49:52;;;;;;;;;;;128.00;2252.80;;;;;;4971177;28;20058;-74
2022/01/08 09:52:18;;;;;;;;;;;103.20;2227.20;;;;;;4975549;28;19910;-76
2022/01/08 09:54:43;;;;;;;;;;;102.80;2227.20;;;;;;4970793;28;19910;-75
2022/01/08 09:57:09;;;;;;;;;;;102.90;2227.20;;;;;;4966969;28;19956;-77
2022/01/08 09:59:34;;;;;;;;;;;103.00;2227.20;;;;;;4964177;28;19958;-74
2022/01/08 10:02:01;;;;;;;;;;;103.10;2227.20;;;;;;4956662;29;20383;-76
2022/01/08 10:04:27;;;;;;;;;;;103.00;2227.20;;;;;;4956668;29;19993;-77
2022/01/08 10:07:12;;;;;;;;;;;103.00;2227.20;;;;;;4956593;29;19906;-75
2022/01/08 10:09:37;;;;;;;;;;;103.00;2227.20;;;;;;4955302;29;19907;-75
2022/01/08 10:12:03;;;;;;;;;;;103.10;2227.20;;;;;;4956428;29;20382;-74
2022/01/08 10:17:13;;;;;;;;;;;103.00;2227.20;;;;;;4956171;28;19907;-74
2022/01/08 10:17:38;;;;;;;;;;;102.80;2227.20;;;;;;4975699;28;19905;-76
2022/01/08 10:20:03;;;;;;;;;;;103.00;2227.20;;;;;;4975420;28;20392;-74
2022/01/08 10:22:29;;;;;;;;;;;103.00;2227.20;;;;;;4957319;28;20020;-74
2022/01/08 10:25:10;;;;;;;;;;;103.20;2227.20;;;;;;4974587;28;20000;-74
2022/01/08 10:27:36;;;;;;;;;;;103.20;2227.20;;;;;;4975483;28;20295;-75
2022/01/08 10:30:03;;;;;;;;;;;103.30;2227.20;;;;;;4975351;28;19910;-73
2022/01/08 10:32:29;;;;;;;;;;;103.30;2227.20;;;;;;4973373;28;19910;-74
2022/01/08 10:34:54;;;;;;;;;;;103.30;2227.20;;;;;;4958657;28;19906;-75
2022/01/08 10:37:20;;;;;;;;;;;103.30;2227.20;;;;;;4975385;28;19913;-78
2022/01/08 10:39:53;;;;;;;;;;;103.20;2227.20;;;;;;4972639;28;19946;-75
2022/01/08 10:42:18;;;;;;;;;;;102.90;2227.20;;;;;;4974048;28;19922;-75
2022/01/08 10:44:47;;;;;;;;;;;102.80;2227.20;;;;;;4973149;28;20278;-76
2022/01/08 10:47:16;;;;;;;;;;;102.60;2227.20;;;;;;4964474;28;20310;-75
2022/01/08 10:49:56;;;;;;;;;;;102.70;2227.20;;;;;;4963072;28;19993;-76
2022/01/08 10:52:22;;;;;;;;;;;102.70;2227.20;;;;;;4964376;28;20147;-76
2022/01/08 10:54:55;;;;;;;;;;;102.70;2227.20;;;;;;4963535;28;19913;-74
2022/01/08 10:57:21;;;;;;;;;;;102.60;2227.20;;;;;;4964440;28;19906;-75
2022/01/08 10:59:54;;;;;;;;;;;102.70;2227.20;;;;;;4965560;28;19910;-75
2022/01/08 11:02:20;;;;;;;;;;;102.50;2227.20;;;;;;4963704;28;19914;-76
2022/01/08 11:04:51;;;;;;;;;;;102.50;2227.20;;;;;;4965695;28;19916;-74
2022/01/08 11:07:16;;;;;;;;;;;102.40;2227.20;;;;;;4963045;28;20363;-75
2022/01/08 11:09:43;;;;;;;;;;;102.50;2227.20;;;;;;4971183;28;19910;-76
2022/01/08 11:12:12;;;;;;;;;;;102.50;2227.20;;;;;;4964535;28;19910;-75
2022/01/08 11:17:15;;;;;;;;;;;102.40;2227.20;;;;;;4965248;28;19918;-74
2022/01/08 11:19:48;;;;;;;;;;;102.50;2227.20;;;;;;4964973;28;19933;-74
2022/01/08 11:22:15;;;;;;;;;;;102.50;2227.20;;;;;;4989681;28;20333;-76
2022/01/08 11:24:43;;;;;;;;;;;102.50;2227.20;;;;;;4973195;28;19945;-75
2022/01/08 11:27:09;;;;;;;;;;;102.50;2227.20;;;;;;4975002;28;19948;-74
2022/01/08 11:29:35;;;;;;;;;;;102.50;2227.20;;;;;;4963498;28;19910;-75
2022/01/08 11:32:03;;;;;;;;;;;102.60;2227.20;;;;;;4969774;28;19906;-74
2022/01/08 11:34:29;;;;;;;;;;;102.60;2227.20;;;;;;4953460;29;19912;-75
2022/01/08 11:36:56;;;;;;;;;;;102.60;2227.20;;;;;;4955478;28;19913;-73
2022/01/08 11:39:26;;;;;;;;;;;102.50;2227.20;;;;;;4955219;28;19926;-75
2022/01/08 11:41:52;;;;;;;;;;;102.60;2227.20;;;;;;4955271;29;19969;-75
2022/01/08 11:44:18;;;;;;;;;;;102.60;2227.20;;;;;;4955284;29;19906;-75
2022/01/08 11:46:44;;;;;;;;;;;102.70;2227.20;;;;;;4954945;28;19961;-74
2022/01/08 11:49:10;;;;;;;;;;;102.80;2227.20;;;;;;4958026;28;19914;-75
2022/01/08 11:51:35;;;;;;;;;;;102.70;2227.20;;;;;;4974572;28;19918;-75
2022/01/08 11:54:02;;;;;;;;;;;102.70;2227.20;;;;;;4973911;28;20281;-76
2022/01/08 11:56:42;;;;;;;;;;;103.00;2227.20;;;;;;4956743;28;20322;-76
2022/01/08 11:59:15;;;;;;;;;;;103.00;2227.20;;;;;;4973432;28;19906;-74
2022/01/08 12:01:43;;;;;;;;;;;103.10;2227.20;;;;;;4973745;28;19961;-78
2022/01/08 12:04:29;;;;;;;;;;;103.10;2227.20;;;;;;4974482;28;19913;-77
2022/01/08 12:06:55;;;;;;;;;;;103.20;2227.20;;;;;;4974595;28;19945;-76
2022/01/08 12:09:25;;;;;;;;;;;103.20;2227.20;;;;;;4974526;28;19953;-76
2022/01/08 12:11:53;;;;;;;;;;;103.30;2227.20;;;;;;4974624;28;19907;-77
2022/01/08 12:14:18;;;;;;;;;;;103.00;2227.20;;;;;;4974576;28;19909;-74
2022/01/08 12:16:45;;;;;;;;;;;102.90;2227.20;;;;;;4975639;28;19906;-75
2022/01/08 12:19:29;;;;;;;;;;;102.60;2227.20;;;;;;4977791;28;19960;-77
2022/01/08 12:21:55;;;;;;;;;;;102.60;2227.20;;;;;;4974889;28;19928;-74
2022/01/08 12:24:27;;;;;;;;;;;102.60;2227.20;;;;;;4977967;28;19964;-74
2022/01/08 12:26:57;;;;;;;;;;;102.60;2227.20;;;;;;4970816;28;19941;-75
2022/01/08 12:29:43;;;;;;;;;;;102.60;2227.20;;;;;;4967142;28;19960;-75
2022/01/08 12:32:46;;;;;;;;;;;102.60;2227.20;;;;;;4967696;28;19906;-73
2022/01/08 12:35:21;;;;;;;;;;;102.50;2227.20;;;;;;4967672;28;19929;-75
2022/01/08 12:37:50;;;;;;;;;;;102.50;2227.20;;;;;;4967496;28;19962;-75
2022/01/08 12:40:49;;;;;;;;;;;102.50;2227.20;;;;;;4966068;28;19961;-75
2022/01/08 12:43:31;;;;;;;;;;;102.50;2227.20;;;;;;4909053;29;19927;-75
2022/01/08 12:46:12;;;;;;;;;;;102.50;2227.20;;;;;;4906569;29;19971;-74
2022/01/08 12:48:38;;;;;;;;;;;102.50;2227.20;;;;;;4909145;29;19924;-76
2022/01/08 12:51:05;;;;;;;;;;;102.60;2227.20;;;;;;4909770;29;19917;-74
2022/01/08 12:53:32;;;;;;;;;;;102.70;2227.20;;;;;;4916868;29;19915;-74
2022/01/08 12:55:57;;;;;;;;;;;102.80;2227.20;;;;;;4917117;29;19923;-74
2022/01/08 12:58:24;;;;;;;;;;;102.80;2227.20;;;;;;4916994;29;20304;-77
2022/01/08 13:00:59;;;;;;;;;;;102.70;2227.20;;;;;;4924781;29;19907;-80
2022/01/08 13:03:31;;;;;;;;;;;102.70;2227.20;;;;;;4908566;29;19926;-74
2022/01/08 13:06:04;;;;;;;;;;;102.90;2227.20;;;;;;4908771;29;20393;-75
2022/01/08 13:08:30;;;;;;;;;;;103.10;2227.20;;;;;;4908072;29;19915;-76
2022/01/08 13:11:00;;;;;;;;;;;103.10;2227.20;;;;;;4891110;29;19908;-73
2022/01/08 13:13:43;;;;;;;;;;;102.90;2227.20;;;;;;4907440;29;19915;-77
2022/01/08 13:16:13;;;;;;;;;;;102.90;2227.20;;;;;;4905603;29;19911;-74
2022/01/08 13:18:39;;;;;;;;;;;102.90;2227.20;;;;;;4934447;28;19961;-75
2022/01/08 13:21:06;;;;;;;;;;;102.90;2227.20;;;;;;4966237;28;19911;-75
2022/01/08 13:23:42;;;;;;;;;;;102.90;2227.20;;;;;;4966034;28;19925;-76
2022/01/08 13:26:07;;;;;;;;;;;103.20;2227.20;;;;;;4966705;28;19913;-75
2022/01/08 13:28:33;;;;;;;;;;;103.20;2227.20;;;;;;4963643;28;19906;-76
2022/01/08 13:31:00;;;;;;;;;;;103.10;2227.20;;;;;;4965170;28;20371;-73
2022/01/08 13:33:27;;;;;;;;;;;103.20;2227.20;;;;;;4965930;28;19906;-73
2022/01/08 13:36:05;;;;;;;;;;;103.10;2227.20;;;;;;4965581;28;19966;-73
2022/01/08 13:38:32;;;;;;;;;;;103.10;2227.20;;;;;;4967108;28;19998;-74
2022/01/08 13:41:08;;;;;;;;;;;103.30;2227.20;;;;;;4980319;28;20358;-78
2022/01/08 13:43:52;;;;;;;;;;;103.10;2227.20;;;;;;4966059;28;19918;-78
2022/01/08 13:46:18;;;;;;;;;;;103.20;2227.20;;;;;;4962812;28;20004;-76
2022/01/08 13:48:44;;;;;;;;;;;103.30;2227.20;;;;;;4956822;28;19945;-74
2022/01/08 13:51:09;;;;;;;;;;;128.00;2252.80;;;;;;4956920;29;19906;-78
2022/01/08 13:53:35;;;;;;;;;;;103.20;2227.20;;;;;;4961988;28;19914;-77
2022/01/08 13:56:01;;;;;;;;;;;103.20;2227.20;;;;;;4966943;28;20005;-77
2022/01/08 13:58:27;;;;;;;;;;;103.30;2227.20;;;;;;4965007;28;19910;-75
2022/01/08 14:00:58;;;;;;;;;;;103.30;2227.20;;;;;;4966658;28;20353;-78
2022/01/08 14:03:34;;;;;;;;;;;103.30;2227.20;;;;;;4969295;28;19922;-75
2022/01/08 14:06:04;;;;;;;;;;;103.30;2227.20;;;;;;4967114;28;19946;-76